Terminal Aerodrome Forecast
Issued by NWS

Home | Current Version | Previous Version | Text Only | Print | Product List | Glossary On
Versions: 1 2 3 4 5 6 7 8 9 10 11 12 13 14 15 16 17 18 19 20 21 22 23 24 25
000
FTUS46 KHNX 260521
TAFFAT
TAF
KFAT 260521Z 2606/2706 VRB03KT 4SM BR BKN200
     FM260900 VRB03KT 2SM BR BKN200
     FM261900 VRB04KT 4SM HZ BKN200=

USA.gov is the U.S. government's official web portal to all federal, state and local government web resources and services.